createdAt,value
2018-01-24T00:00:42.662Z,91.41
2018-01-24T00:01:42.657Z,91.31
2018-01-24T00:02:42.645Z,91.50
2018-01-24T00:03:42.665Z,91.13
2018-01-24T00:04:42.639Z,90.45
2018-01-24T00:05:42.630Z,90.64
2018-01-24T00:06:42.645Z,90.74
2018-01-24T00:07:42.613Z,90.74
2018-01-24T00:08:42.612Z,90.74
2018-01-24T00:09:42.610Z,91.03
2018-01-24T00:10:42.600Z,91.03
2018-01-24T00:11:42.589Z,90.84
2018-01-24T00:12:42.593Z,90.93
2018-01-24T00:13:42.583Z,90.45
2018-01-24T00:14:42.590Z,90.26
2018-01-24T00:15:42.591Z,90.26
2018-01-24T00:16:42.581Z,90.26
2018-01-24T00:17:42.577Z,90.17
2018-01-24T00:18:42.569Z,90.08
2018-01-24T00:19:42.560Z,90.26
2018-01-24T00:20:42.554Z,90.45
2018-01-24T00:21:42.555Z,90.55
2018-01-24T00:22:42.543Z,90.08
2018-01-24T00:23:42.542Z,89.89
2018-01-24T00:24:42.551Z,90.36
2018-01-24T00:25:42.528Z,90.08
2018-01-24T00:26:42.516Z,90.17
2018-01-24T00:27:42.512Z,90.08
2018-01-24T00:28:42.502Z,90.08
2018-01-24T00:29:42.512Z,89.98
2018-01-24T00:30:42.501Z,90.36
2018-01-24T00:31:42.502Z,90.08
2018-01-24T00:32:42.510Z,90.45
2018-01-24T00:33:42.495Z,90.17
2018-01-24T00:34:42.495Z,90.36
2018-01-24T00:35:42.501Z,90.08
2018-01-24T00:36:42.494Z,90.36
2018-01-24T00:37:42.477Z,90.26
2018-01-24T00:38:42.462Z,90.26
2018-01-24T00:39:42.462Z,90.64
2018-01-24T00:40:42.454Z,89.98
2018-01-24T00:41:42.456Z,89.98
2018-01-24T00:42:42.432Z,90.08
2018-01-24T00:43:42.427Z,90.26
2018-01-24T00:44:42.425Z,90.08
2018-01-24T00:45:42.428Z,90.36
2018-01-24T00:46:42.411Z,90.36
2018-01-24T00:47:50.536Z,90.36
2018-01-24T00:50:27.216Z,90.08
2018-01-24T00:51:26.795Z,90.26
2018-01-24T00:54:10.682Z,90.03
2018-01-24T00:55:10.578Z,90.22
2018-01-24T00:57:54.225Z,90.59
2018-01-24T00:58:54.149Z,90.31
2018-01-24T01:01:39.546Z,90.26
2018-01-24T01:02:39.960Z,90.08
2018-01-24T01:05:21.956Z,89.83
2018-01-24T01:06:22.343Z,90.22
2018-01-24T01:09:06.773Z,90.26
2018-01-24T01:10:07.702Z,90.08
2018-01-24T01:12:51.139Z,90.22
2018-01-24T01:13:51.028Z,90.12
2018-01-24T01:16:35.038Z,90.22
2018-01-24T01:17:35.451Z,90.12
2018-01-24T01:20:19.343Z,90.12
2018-01-24T01:21:18.368Z,90.17
2018-01-24T01:24:02.808Z,90.17
2018-01-24T01:25:02.753Z,90.26
2018-01-24T01:27:48.573Z,90.17
2018-01-24T01:28:48.087Z,90.26
2018-01-24T01:31:32.527Z,90.84
2018-01-24T01:32:32.962Z,90.45
2018-01-24T01:35:16.864Z,91.50
2018-01-24T01:36:15.897Z,91.41
2018-01-24T01:38:59.255Z,91.79
2018-01-24T01:39:59.252Z,91.79
2018-01-24T01:42:42.863Z,91.69
2018-01-24T01:43:42.635Z,91.88
2018-01-24T01:46:27.341Z,92.93
2018-01-24T01:47:27.223Z,92.74
2018-01-24T01:50:12.037Z,92.41
2018-01-24T01:51:10.972Z,92.69
2018-01-24T01:53:55.574Z,92.74
2018-01-24T01:54:54.951Z,92.84
2018-01-24T01:57:40.807Z,92.84
2018-01-24T01:58:40.219Z,92.84
2018-01-24T02:01:22.766Z,92.84
2018-01-24T02:02:23.618Z,93.03
2018-01-24T02:05:07.026Z,92.79
2018-01-24T02:06:07.423Z,92.79
2018-01-24T02:08:51.367Z,92.79
2018-01-24T02:09:50.400Z,93.46
2018-01-24T02:12:34.729Z,93.37
2018-01-24T02:13:34.621Z,93.17
2018-01-24T02:16:17.612Z,93.08
2018-01-24T02:17:17.556Z,93.27
2018-01-24T02:20:01.483Z,93.55
2018-01-24T02:21:01.485Z,94.03
2018-01-24T02:23:45.994Z,94.03
2018-01-24T02:24:45.855Z,93.84
2018-01-24T02:27:30.273Z,94.41
2018-01-24T02:28:31.141Z,94.41
2018-01-24T02:31:14.587Z,95.27
2018-01-24T02:32:14.559Z,94.60
2018-01-24T02:34:58.921Z,94.41
2018-01-24T02:35:58.847Z,94.60
2018-01-24T02:38:42.323Z,94.60
2018-01-24T02:39:42.735Z,94.79
2018-01-24T02:42:27.109Z,95.08
2018-01-24T02:43:27.090Z,94.60
2018-01-24T02:46:10.058Z,94.98
2018-01-24T02:47:10.481Z,94.89
2018-01-24T02:49:54.845Z,94.79
2018-01-24T02:50:54.827Z,94.98
2018-01-24T02:53:37.778Z,95.65
2018-01-24T02:54:37.732Z,94.79
2018-01-24T02:57:22.544Z,94.89
2018-01-24T02:58:22.093Z,94.89
2018-01-24T03:01:06.516Z,94.98
2018-01-24T03:02:06.458Z,94.60
2018-01-24T03:04:51.080Z,94.56
2018-01-24T03:05:51.048Z,94.27
2018-01-24T03:08:35.463Z,94.56
2018-01-24T03:09:35.851Z,94.46
2018-01-24T03:12:20.354Z,93.79
2018-01-24T03:13:19.742Z,93.79
2018-01-24T03:16:04.153Z,93.88
2018-01-24T03:17:03.566Z,93.88
2018-01-24T03:19:47.923Z,94.08
2018-01-24T03:20:48.377Z,93.79
2018-01-24T03:23:32.270Z,93.88
2018-01-24T03:24:31.926Z,93.32
2018-01-24T03:27:16.749Z,93.03
2018-01-24T03:28:16.215Z,93.03
2018-01-24T03:30:14.015Z,92.93
2018-01-24T03:31:13.054Z,93.22
2018-01-24T03:33:56.948Z,93.32
2018-01-24T03:34:55.962Z,93.60
2018-01-24T03:37:40.303Z,93.70
2018-01-24T03:38:40.270Z,93.22
2018-01-24T03:41:24.198Z,93.03
2018-01-24T03:42:24.651Z,93.12
2018-01-24T03:45:08.106Z,93.51
2018-01-24T03:46:07.976Z,93.70
2018-01-24T03:48:50.505Z,93.22
2018-01-24T03:49:50.903Z,93.27
2018-01-24T03:52:34.278Z,93.36
2018-01-24T03:53:33.790Z,92.88
2018-01-24T03:56:18.187Z,92.60
2018-01-24T03:57:18.172Z,93.08
2018-01-24T04:00:02.993Z,92.50
2018-01-24T04:01:02.971Z,93.17
2018-01-24T04:03:46.677Z,92.69
2018-01-24T04:04:47.023Z,92.60
2018-01-24T04:07:31.315Z,93.36
2018-01-24T04:08:31.303Z,92.98
2018-01-24T04:11:15.298Z,93.36
2018-01-24T04:12:15.180Z,93.36
2018-01-24T04:15:00.575Z,92.98
2018-01-24T04:16:00.554Z,93.65
2018-01-24T04:18:44.945Z,93.32
2018-01-24T04:19:46.017Z,93.46
2018-01-24T04:22:28.604Z,93.70
2018-01-24T04:23:28.548Z,93.60
2018-01-24T04:26:13.875Z,93.79
2018-01-24T04:27:14.835Z,93.60
2018-01-24T04:29:57.352Z,94.46
2018-01-24T04:30:57.257Z,94.08
2018-01-24T04:33:41.694Z,94.46
2018-01-24T04:34:42.081Z,94.37
2018-01-24T04:37:26.027Z,94.17
2018-01-24T04:38:26.023Z,95.03
2018-01-24T04:41:09.414Z,94.27
2018-01-24T04:42:10.321Z,94.37
2018-01-24T04:44:53.273Z,94.27
2018-01-24T04:45:53.085Z,94.27
2018-01-24T04:48:37.603Z,95.03
2018-01-24T04:49:37.088Z,94.93
2018-01-24T04:52:21.911Z,94.65
2018-01-24T04:53:21.827Z,94.84
2018-01-24T04:56:06.400Z,95.03
2018-01-24T04:57:06.741Z,94.84
2018-01-24T04:59:51.730Z,94.84
2018-01-24T05:00:51.174Z,95.12
2018-01-24T05:03:33.995Z,95.61
2018-01-24T05:04:34.501Z,95.12
2018-01-24T05:07:18.385Z,95.51
2018-01-24T05:08:19.313Z,95.51
2018-01-24T05:11:02.745Z,95.70
2018-01-24T05:12:02.281Z,95.89
2018-01-24T05:14:46.216Z,95.89
2018-01-24T05:15:45.821Z,95.89
2018-01-24T05:18:30.656Z,95.89
2018-01-24T05:19:30.606Z,96.08
2018-01-24T05:22:13.995Z,95.89
2018-01-24T05:23:13.946Z,95.98
2018-01-24T05:25:58.355Z,96.08
2018-01-24T05:26:58.358Z,95.98
2018-01-24T05:29:42.701Z,95.70
2018-01-24T05:30:42.673Z,96.46
2018-01-24T05:33:27.117Z,95.98
2018-01-24T05:34:26.658Z,96.46
2018-01-24T05:37:12.412Z,96.94
2018-01-24T05:38:11.001Z,97.13
2018-01-24T05:40:56.279Z,96.08
2018-01-24T05:41:55.334Z,96.65
2018-01-24T05:44:38.796Z,97.03
2018-01-24T05:45:38.704Z,96.56
2018-01-24T05:48:22.553Z,96.56
2018-01-24T05:49:22.047Z,97.41
2018-01-24T05:52:06.485Z,97.03
2018-01-24T05:53:06.731Z,97.22
2018-01-24T05:55:51.261Z,97.17
2018-01-24T05:56:51.179Z,97.22
2018-01-24T05:59:35.514Z,97.75
2018-01-24T06:00:35.160Z,98.27
2018-01-24T06:03:19.961Z,97.65
2018-01-24T06:04:19.908Z,97.75
2018-01-24T06:07:02.936Z,97.94
2018-01-24T06:08:02.890Z,97.99
2018-01-24T06:10:47.988Z,97.99
2018-01-24T06:11:47.682Z,97.89
2018-01-24T06:14:32.395Z,97.80
2018-01-24T06:15:32.349Z,97.80
2018-01-24T06:18:16.771Z,98.22
2018-01-24T06:19:16.332Z,98.13
2018-01-24T06:20:16.275Z,98.60
2018-01-24T06:21:16.270Z,98.51
2018-01-24T06:22:16.310Z,98.13
2018-01-24T06:23:16.643Z,98.41
2018-01-24T06:24:16.653Z,98.51
2018-01-24T06:25:16.635Z,98.32
2018-01-24T06:26:17.167Z,99.08
2018-01-24T06:27:16.667Z,98.89
2018-01-24T06:28:16.707Z,98.79
2018-01-24T06:29:16.667Z,99.37
2018-01-24T06:30:16.651Z,99.55
2018-01-24T06:31:16.206Z,99.18
2018-01-24T06:32:16.226Z,99.65
2018-01-24T06:33:16.186Z,99.94
2018-01-24T06:34:16.187Z,99.75
2018-01-24T06:35:16.181Z,99.84
2018-01-24T06:36:16.176Z,99.99
2018-01-24T06:37:16.164Z,99.99
2018-01-24T06:38:16.204Z,99.75
2018-01-24T06:39:16.387Z,99.99
2018-01-24T06:40:16.206Z,99.84
2018-01-24T06:41:18.032Z,99.75
2018-01-24T06:42:16.553Z,99.65
2018-01-24T06:43:18.020Z,99.65
2018-01-24T06:44:16.314Z,99.37
2018-01-24T06:45:17.385Z,99.37
2018-01-24T06:46:18.058Z,99.37
2018-01-24T06:47:16.479Z,99.27
2018-01-24T06:48:16.296Z,99.94
2018-01-24T06:49:18.164Z,98.85
2018-01-24T06:50:18.291Z,98.94
2018-01-24T06:51:18.253Z,98.94
2018-01-24T06:52:17.530Z,98.94
2018-01-24T06:53:17.483Z,98.85
2018-01-24T06:54:17.578Z,99.13
2018-01-24T06:55:16.144Z,99.04
2018-01-24T06:56:16.752Z,98.56
2018-01-24T06:57:16.213Z,98.75
2018-01-24T06:58:16.274Z,98.36
2018-01-24T06:59:16.150Z,98.18
2018-01-24T07:00:16.551Z,98.18
2018-01-24T07:01:16.583Z,98.27
2018-01-24T07:02:16.351Z,98.08
2018-01-24T07:03:18.320Z,98.18
2018-01-24T07:04:17.062Z,98.18
2018-01-24T07:05:16.221Z,97.99
2018-01-24T07:06:16.282Z,98.08
2018-01-24T07:07:16.187Z,98.18
2018-01-24T07:08:16.516Z,97.99
2018-01-24T07:09:16.155Z,98.18
2018-01-24T07:10:16.309Z,97.41
2018-01-24T07:11:16.925Z,98.18
2018-01-24T07:12:16.393Z,97.80
2018-01-24T07:13:16.381Z,97.70
2018-01-24T07:14:16.308Z,97.41
2018-01-24T07:15:17.300Z,97.99
2018-01-24T07:16:16.446Z,98.08
2018-01-24T07:17:18.081Z,97.13
2018-01-24T07:18:18.119Z,97.41
2018-01-24T07:19:18.144Z,96.94
2018-01-24T07:20:18.127Z,97.03
2018-01-24T07:21:16.801Z,96.65
2018-01-24T07:25:01.994Z,96.56
2018-01-24T07:26:01.563Z,96.98
2018-01-24T07:27:01.737Z,96.84
2018-01-24T07:28:02.089Z,96.36
2018-01-24T07:29:02.707Z,96.13
2018-01-24T07:30:02.367Z,96.03
2018-01-24T07:31:02.307Z,96.32
2018-01-24T07:32:01.799Z,96.22
2018-01-24T07:33:01.810Z,95.98
2018-01-24T07:34:04.284Z,96.32
2018-01-24T07:35:01.207Z,96.32
2018-01-24T07:36:01.679Z,95.75
2018-01-24T07:37:02.556Z,96.22
2018-01-24T07:38:01.543Z,96.03
2018-01-24T07:39:01.907Z,95.84
2018-01-24T07:40:00.443Z,95.84
2018-01-24T07:41:00.235Z,95.84
2018-01-24T07:41:59.664Z,95.84
2018-01-24T07:43:00.111Z,96.03
2018-01-24T07:43:59.520Z,95.84
2018-01-24T07:44:59.521Z,95.56
2018-01-24T07:45:59.583Z,96.32
2018-01-24T07:46:59.671Z,96.32
2018-01-24T07:48:00.249Z,95.75
2018-01-24T07:49:00.434Z,95.94
2018-01-24T07:49:59.754Z,95.46
2018-01-24T07:50:59.501Z,95.46
2018-01-24T07:51:59.404Z,96.13
2018-01-24T07:52:59.545Z,96.13
2018-01-24T07:53:59.904Z,95.46
2018-01-24T07:54:59.571Z,95.46
2018-01-24T07:56:00.330Z,95.84
2018-01-24T07:56:59.499Z,95.56
2018-01-24T07:57:59.592Z,95.65
2018-01-24T07:58:59.882Z,95.46
2018-01-24T07:59:59.763Z,95.75
2018-01-24T08:00:59.712Z,95.75
2018-01-24T08:01:59.738Z,95.75
2018-01-24T08:02:59.710Z,94.79
2018-01-24T08:03:59.799Z,94.89
2018-01-24T08:05:00.286Z,94.89
2018-01-24T08:05:59.873Z,94.89
2018-01-24T08:06:59.640Z,94.89
2018-01-24T08:07:59.463Z,94.89
2018-01-24T08:08:59.579Z,94.98
2018-01-24T08:09:59.667Z,94.98
2018-01-24T08:10:59.992Z,94.98
2018-01-24T08:12:00.441Z,94.89
2018-01-24T08:12:59.658Z,95.08
2018-01-24T08:13:59.637Z,94.98
2018-01-24T08:15:00.369Z,95.32
2018-01-24T08:15:59.473Z,95.32
2018-01-24T08:16:59.541Z,94.93
2018-01-24T08:17:59.889Z,94.84
2018-01-24T08:18:59.312Z,94.56
2018-01-24T08:19:59.518Z,95.03
2018-01-24T08:21:00.304Z,95.03
2018-01-24T08:21:59.714Z,94.65
2018-01-24T08:22:59.997Z,94.46
2018-01-24T08:23:59.524Z,94.36
2018-01-24T08:24:59.543Z,94.56
2018-01-24T08:25:59.637Z,93.98
2018-01-24T08:26:59.570Z,93.88
2018-01-24T08:27:59.830Z,93.79
2018-01-24T08:28:59.638Z,93.98
2018-01-24T08:29:59.412Z,94.07
2018-01-24T08:30:59.657Z,93.60
2018-01-24T08:31:59.426Z,93.60
2018-01-24T08:32:59.695Z,93.88
2018-01-24T08:33:59.547Z,94.17
2018-01-24T08:34:59.525Z,93.98
2018-01-24T08:35:59.554Z,93.79
2018-01-24T08:36:59.488Z,93.79
2018-01-24T08:37:59.313Z,94.74
2018-01-24T08:38:59.496Z,94.07
2018-01-24T08:39:59.562Z,94.36
2018-01-24T08:40:59.458Z,93.98
2018-01-24T08:41:59.410Z,93.79
2018-01-24T08:42:59.459Z,93.88
2018-01-24T08:43:59.362Z,94.07
2018-01-24T08:44:59.720Z,93.51
2018-01-24T08:45:59.413Z,93.79
2018-01-24T08:47:01.422Z,94.07
2018-01-24T08:47:59.531Z,94.17
2018-01-24T08:48:59.315Z,94.17
2018-01-24T08:49:59.282Z,93.12
2018-01-24T08:51:00.220Z,94.17
2018-01-24T08:51:59.658Z,93.88
2018-01-24T08:52:59.394Z,94.17
2018-01-24T08:53:59.508Z,93.98
2018-01-24T08:54:59.487Z,93.12
2018-01-24T08:55:59.297Z,93.12
2018-01-24T08:59:56.028Z,93.26
2018-01-24T09:03:03.096Z,92.69
2018-01-24T09:04:03.030Z,92.69
2018-01-24T09:05:02.788Z,92.60
2018-01-24T09:06:02.921Z,93.07
2018-01-24T09:07:02.946Z,92.31
2018-01-24T09:08:05.562Z,92.41
2018-01-24T09:09:03.481Z,92.60
2018-01-24T09:10:02.857Z,92.12
2018-01-24T09:11:01.457Z,91.93
2018-01-24T09:12:02.093Z,92.21
2018-01-24T09:13:03.186Z,92.12
2018-01-24T09:14:03.051Z,91.64
2018-01-24T09:15:09.516Z,91.78
2018-01-24T09:16:02.662Z,91.40
2018-01-24T09:17:01.433Z,91.50
2018-01-24T09:18:00.767Z,91.69
2018-01-24T09:19:00.528Z,90.64
2018-01-24T09:20:00.572Z,90.83
2018-01-24T09:21:00.579Z,90.54
2018-01-24T09:22:00.720Z,90.25
2018-01-24T09:23:00.718Z,90.45
2018-01-24T09:24:00.624Z,90.25
2018-01-24T09:25:00.564Z,90.73
2018-01-24T09:26:00.684Z,90.25
2018-01-24T09:27:00.728Z,90.35
2018-01-24T09:28:00.910Z,89.78
2018-01-24T09:29:04.315Z,90.20
2018-01-24T09:30:02.415Z,89.97
2018-01-24T09:31:01.823Z,89.34
2018-01-24T09:32:00.963Z,89.44
2018-01-24T09:33:00.738Z,89.92
2018-01-24T09:34:00.602Z,89.92
2018-01-24T09:35:00.841Z,90.20
2018-01-24T09:36:00.697Z,89.92
2018-01-24T09:37:02.424Z,89.06
2018-01-24T09:38:00.730Z,89.44
2018-01-24T09:39:02.453Z,89.06
2018-01-24T09:40:00.893Z,88.96
2018-01-24T09:41:00.873Z,88.39
2018-01-24T09:42:00.827Z,88.68
2018-01-24T09:43:00.682Z,88.48
2018-01-24T09:44:02.717Z,88.29
2018-01-24T09:45:01.270Z,87.86
2018-01-24T09:46:00.736Z,87.95
2018-01-24T09:47:02.324Z,87.76
2018-01-24T09:48:00.743Z,87.19
2018-01-24T09:49:02.478Z,87.29
2018-01-24T09:50:00.788Z,87.09
2018-01-24T09:51:00.895Z,86.90
2018-01-24T09:52:06.520Z,86.80
2018-01-24T09:53:01.747Z,86.61
2018-01-24T09:54:00.886Z,86.90
2018-01-24T09:55:02.414Z,86.43
2018-01-24T09:56:00.782Z,86.43
2018-01-24T09:57:02.388Z,85.85
2018-01-24T09:58:01.676Z,86.43
2018-01-24T09:59:00.749Z,86.33
2018-01-24T10:00:00.563Z,86.43
2018-01-24T10:01:00.741Z,86.61
2018-01-24T10:02:00.669Z,86.66
2018-01-24T10:03:00.636Z,85.85
2018-01-24T10:04:00.539Z,85.99
2018-01-24T10:05:00.821Z,85.89
2018-01-24T10:06:00.627Z,85.99
2018-01-24T10:07:00.727Z,86.33
2018-01-24T10:08:00.647Z,85.99
2018-01-24T10:09:00.580Z,85.75
2018-01-24T10:10:00.769Z,85.22
2018-01-24T10:11:00.672Z,85.41
2018-01-24T10:12:00.596Z,85.22
2018-01-24T10:13:02.523Z,85.22
2018-01-24T10:14:00.698Z,85.41
2018-01-24T10:15:00.714Z,85.13
2018-01-24T10:16:00.818Z,85.61
2018-01-24T10:17:01.685Z,85.61
2018-01-24T10:18:01.723Z,85.13
2018-01-24T10:19:00.760Z,84.84
2018-01-24T10:20:02.532Z,84.65
2018-01-24T10:21:00.520Z,84.65
2018-01-24T10:22:00.504Z,84.55
2018-01-24T10:23:02.613Z,84.55
2018-01-24T10:24:02.474Z,84.27
2018-01-24T10:25:00.566Z,83.89
2018-01-24T10:26:03.076Z,83.89
2018-01-24T10:27:00.686Z,83.98
2018-01-24T10:28:02.582Z,83.60
2018-01-24T10:29:00.668Z,84.46
2018-01-24T10:30:00.585Z,84.08
2018-01-24T10:31:02.586Z,83.60
2018-01-24T10:32:00.534Z,83.79
2018-01-24T10:33:01.446Z,83.69
2018-01-24T10:34:00.548Z,83.79
2018-01-24T10:35:01.647Z,83.79
2018-01-24T10:36:01.925Z,83.60
2018-01-24T10:37:00.837Z,84.12
2018-01-24T10:38:00.726Z,83.26
2018-01-24T10:39:01.267Z,83.45
2018-01-24T10:40:02.646Z,83.06
2018-01-24T10:41:00.912Z,83.45
2018-01-24T10:42:02.455Z,82.40
2018-01-24T10:43:00.589Z,82.40
2018-01-24T10:44:16.504Z,82.68
2018-01-24T10:45:09.153Z,82.49
2018-01-24T10:46:07.048Z,82.40
2018-01-24T10:47:06.791Z,82.83
2018-01-24T10:48:07.970Z,82.87
2018-01-24T10:49:07.124Z,82.83
2018-01-24T10:50:08.515Z,82.93
2018-01-24T10:51:14.613Z,83.22
2018-01-24T10:52:08.969Z,83.22
2018-01-24T10:53:07.893Z,83.50
2018-01-24T10:54:08.955Z,83.22
2018-01-24T10:55:06.942Z,83.31
2018-01-24T10:56:08.858Z,83.03
2018-01-24T10:57:07.392Z,83.79
2018-01-24T10:57:19.720Z,83.22
2018-01-24T10:58:19.106Z,83.69
2018-01-24T11:00:08.994Z,83.69
2018-01-24T11:01:09.719Z,83.89
2018-01-24T11:02:08.638Z,83.79
2018-01-24T11:03:08.936Z,83.50
2018-01-24T11:04:09.568Z,83.60
2018-01-24T11:05:07.182Z,83.50
2018-01-24T11:06:14.596Z,83.79
2018-01-24T11:07:06.831Z,83.79
2018-01-24T11:08:08.528Z,82.93
2018-01-24T11:09:07.880Z,83.22
2018-01-24T11:10:08.006Z,82.83
2018-01-24T11:11:07.999Z,83.40
2018-01-24T11:12:06.952Z,83.22
2018-01-24T11:13:08.644Z,83.22
2018-01-24T11:14:06.801Z,82.74
2018-01-24T11:15:08.601Z,82.30
2018-01-24T11:16:07.066Z,82.40
2018-01-24T11:17:06.813Z,82.68
2018-01-24T11:18:08.549Z,82.20
2018-01-24T11:19:06.834Z,81.82
2018-01-24T11:20:06.911Z,81.63
2018-01-24T11:21:06.946Z,81.73
2018-01-24T11:22:07.002Z,82.01
2018-01-24T11:23:07.108Z,81.63
2018-01-24T11:24:07.331Z,81.15
2018-01-24T11:25:07.018Z,81.92
2018-01-24T11:26:06.897Z,81.44
2018-01-24T11:27:07.882Z,81.82
2018-01-24T11:28:08.553Z,81.63
2018-01-24T11:29:06.949Z,81.44
2018-01-24T11:30:06.837Z,81.15
2018-01-24T11:31:07.870Z,81.34
2018-01-24T11:32:09.432Z,81.25
2018-01-24T11:33:08.453Z,81.34
2018-01-24T11:34:08.638Z,81.15
2018-01-24T11:35:06.714Z,81.73
2018-01-24T11:36:08.724Z,81.44
2018-01-24T11:37:07.815Z,81.54
2018-01-24T11:38:07.085Z,81.34
2018-01-24T11:39:13.630Z,80.96
2018-01-24T11:40:06.826Z,80.87
2018-01-24T11:41:06.926Z,80.77
2018-01-24T11:42:06.787Z,80.90
2018-01-24T11:43:08.565Z,80.33
2018-01-24T11:44:08.183Z,80.58
2018-01-24T11:45:10.395Z,80.87
2018-01-24T11:46:06.731Z,80.81
2018-01-24T11:47:09.190Z,80.71
2018-01-24T11:48:08.836Z,80.81
2018-01-24T11:51:48.920Z,80.43
2018-01-24T11:55:28.528Z,80.33
2018-01-24T11:58:50.949Z,80.04
2018-01-24T12:02:00.332Z,79.37
2018-01-24T12:02:54.860Z,79.37
2018-01-24T12:06:16.943Z,79.18
2018-01-24T12:07:10.333Z,79.08
2018-01-24T12:08:16.234Z,80.14
2018-01-24T12:09:11.067Z,79.47
2018-01-24T12:10:17.506Z,80.04
2018-01-24T12:11:07.768Z,80.04
2018-01-24T12:12:09.713Z,79.66
2018-01-24T12:13:08.318Z,79.43
2018-01-24T12:14:08.824Z,80.00
2018-01-24T12:15:10.696Z,79.47
2018-01-24T12:16:12.192Z,79.37
2018-01-24T12:17:08.367Z,79.18
2018-01-24T12:18:30.000Z,79.28
2018-01-24T12:19:20.359Z,79.37
2018-01-24T12:20:21.402Z,79.57
2018-01-24T12:21:21.415Z,79.95
2018-01-24T12:22:20.417Z,79.47
2018-01-24T12:23:19.788Z,79.47
2018-01-24T12:24:17.689Z,78.99
2018-01-24T12:25:18.425Z,78.89
2018-01-24T12:26:18.010Z,79.37
2018-01-24T12:27:21.491Z,79.18
2018-01-24T12:28:26.822Z,80.14
2018-01-24T12:29:18.376Z,78.95
2018-01-24T12:30:20.881Z,79.28
2018-01-24T12:31:19.350Z,79.37
2018-01-24T12:32:39.822Z,79.66
2018-01-24T12:33:30.326Z,79.95
2018-01-24T12:34:32.452Z,79.91
2018-01-24T12:35:31.973Z,79.95
2018-01-24T12:36:31.183Z,79.37
2018-01-24T12:37:32.768Z,78.99
2018-01-24T12:38:34.487Z,79.66
2018-01-24T12:39:30.917Z,79.47
2018-01-24T12:40:30.834Z,79.95
2018-01-24T12:41:30.444Z,79.95
2018-01-24T12:42:33.878Z,80.14
2018-01-24T12:43:31.545Z,79.57
2018-01-24T12:44:30.429Z,79.75
2018-01-24T12:45:30.364Z,79.95
2018-01-24T12:46:31.210Z,79.47
2018-01-24T12:47:32.513Z,79.47
2018-01-24T12:48:31.912Z,79.28
2018-01-24T12:49:31.818Z,79.28
2018-01-24T12:50:31.338Z,78.99
2018-01-24T12:51:30.527Z,78.89
2018-01-24T12:52:30.408Z,79.08
2018-01-24T12:53:31.803Z,78.80
2018-01-24T12:54:30.393Z,78.80
2018-01-24T12:55:32.384Z,79.47
2018-01-24T12:56:30.701Z,79.18
2018-01-24T12:57:32.934Z,79.28
2018-01-24T12:58:31.896Z,79.37
2018-01-24T13:01:57.930Z,78.89
2018-01-24T13:02:58.919Z,78.99
2018-01-24T13:08:38.180Z,79.57
2018-01-24T13:17:15.696Z,79.28
2018-01-24T13:18:18.874Z,78.99
2018-01-24T13:21:35.175Z,78.80
2018-01-24T13:23:12.223Z,78.80
2018-01-24T13:24:02.601Z,78.80
2018-01-24T13:25:03.883Z,79.08
2018-01-24T13:26:00.534Z,78.80
2018-01-24T13:27:03.447Z,79.28
2018-01-24T13:28:09.365Z,78.61
2018-01-24T13:29:02.616Z,78.61
2018-01-24T13:30:42.352Z,78.42
2018-01-24T13:31:29.505Z,78.99
2018-01-24T13:32:41.674Z,78.89
2018-01-24T13:33:30.197Z,78.80
2018-01-24T13:34:30.708Z,79.28
2018-01-24T13:35:32.637Z,78.89
2018-01-24T13:36:31.536Z,79.18
2018-01-24T13:37:29.890Z,79.08
2018-01-24T13:38:30.029Z,79.08
2018-01-24T13:39:39.714Z,78.99
2018-01-24T13:40:32.845Z,78.99
2018-01-24T13:41:29.660Z,78.89
2018-01-24T13:42:53.270Z,78.80
2018-01-24T13:43:43.358Z,78.99
2018-01-24T13:44:45.751Z,78.70
2018-01-24T13:45:46.001Z,79.24
2018-01-24T13:46:41.789Z,79.28
2018-01-24T13:47:52.081Z,78.89
2018-01-24T13:48:42.556Z,78.86
2018-01-24T13:49:42.239Z,78.86
2018-01-24T13:50:46.232Z,79.14
2018-01-24T13:51:56.582Z,79.33
2018-01-24T13:52:45.931Z,78.86
2018-01-24T13:54:08.830Z,79.43
2018-01-24T13:54:58.936Z,79.43
2018-01-24T13:56:01.580Z,78.86
2018-01-24T13:57:01.620Z,78.76
2018-01-24T13:57:55.038Z,79.14
2018-01-24T13:58:54.755Z,78.95
2018-01-24T13:59:58.720Z,79.05
2018-01-24T14:00:53.710Z,79.33
2018-01-24T14:01:53.518Z,79.05
2018-01-24T14:02:53.805Z,78.86
2018-01-24T14:03:54.026Z,79.43
2018-01-24T14:04:54.191Z,78.95
2018-01-24T14:05:53.520Z,78.95
2018-01-24T14:06:53.529Z,79.33
2018-01-24T14:07:53.752Z,79.43
2018-01-24T14:08:54.462Z,79.24
2018-01-24T14:09:53.917Z,79.05
2018-01-24T14:10:53.412Z,79.33
2018-01-24T14:11:53.347Z,79.14
2018-01-24T14:12:53.269Z,79.24
2018-01-24T14:13:53.384Z,79.33
2018-01-24T14:14:53.216Z,79.43
2018-01-24T14:15:53.255Z,79.14
2018-01-24T14:16:53.177Z,79.14
2018-01-24T14:17:53.218Z,80.00
2018-01-24T14:18:54.164Z,79.96
2018-01-24T14:19:53.360Z,79.87
2018-01-24T14:20:53.467Z,79.68
2018-01-24T14:21:53.241Z,80.06
2018-01-24T14:22:53.962Z,80.06
2018-01-24T14:23:54.374Z,80.00
2018-01-24T14:24:53.768Z,79.96
2018-01-24T14:25:53.677Z,80.06
2018-01-24T14:26:53.416Z,80.48
2018-01-24T14:27:54.088Z,80.44
2018-01-24T14:28:53.698Z,80.16
2018-01-24T14:29:53.426Z,80.06
2018-01-24T14:30:53.721Z,80.44
2018-01-24T14:31:53.519Z,80.73
2018-01-24T14:32:53.340Z,80.63
2018-01-24T14:33:53.640Z,80.73
2018-01-24T14:34:53.943Z,80.63
2018-01-24T14:35:53.952Z,80.63
2018-01-24T14:36:53.330Z,80.73
2018-01-24T14:37:54.835Z,80.44
2018-01-24T14:38:53.117Z,80.25
2018-01-24T14:39:53.407Z,80.44
2018-01-24T14:40:53.416Z,80.73
2018-01-24T14:41:53.315Z,80.73
2018-01-24T14:42:53.391Z,80.35
2018-01-24T14:43:53.769Z,80.54
2018-01-24T14:44:53.932Z,81.02
2018-01-24T14:45:53.244Z,80.63
2018-01-24T14:46:53.611Z,80.06
2018-01-24T14:47:55.025Z,80.63
2018-01-24T14:48:53.257Z,80.54
2018-01-24T14:49:53.904Z,80.92
2018-01-24T14:50:55.904Z,80.92
2018-01-24T14:51:53.346Z,80.73
2018-01-24T14:52:53.218Z,80.73
2018-01-24T14:53:53.192Z,81.49
2018-01-24T14:54:53.812Z,80.92
2018-01-24T14:55:53.389Z,80.73
2018-01-24T14:56:55.276Z,81.07
2018-01-24T14:57:53.718Z,81.30
2018-01-24T14:58:53.301Z,81.11
2018-01-24T14:59:53.746Z,81.30
2018-01-24T15:03:44.006Z,81.26
2018-01-24T15:07:35.488Z,81.07
2018-01-24T15:08:31.545Z,81.84
2018-01-24T15:09:32.283Z,81.16
2018-01-24T15:10:32.426Z,81.16
2018-01-24T15:11:34.062Z,81.16
2018-01-24T15:12:44.239Z,81.55
2018-01-24T15:13:42.650Z,81.36
2018-01-24T15:16:59.652Z,81.93
2018-01-24T15:20:46.640Z,82.79
2018-01-24T15:21:44.538Z,82.31
2018-01-24T15:27:16.781Z,82.31
2018-01-24T15:30:16.369Z,82.60
2018-01-24T15:31:16.225Z,82.60
2018-01-24T15:34:06.292Z,82.22
2018-01-24T15:40:11.362Z,82.79
2018-01-24T15:46:22.631Z,82.94
